Time;durP1;ratioP1;P1;durP2;ratioP2;P2;SDS_P1;SDS_P2;PMS_P1;PMS_P2;Temp;Humidity;BMP_temperature;BMP_pressure;BME280_temperature;BME280_humidity;BME280_pressure;Samples;Min_cycle;Max_cycle;Signal;HPM_P1;HPM_P2
2023/06/22 00:00:12;;;;;;;21.10;16.40;;;;;;;17.52;100.00;97634.14;110755;1238;58926;-79
2023/06/22 00:03:02;;;;;;;20.80;16.40;;;;;;;17.49;100.00;97635.50;110634;1239;70479;-78
2023/06/22 00:05:32;;;;;;;20.50;16.30;;;;;;;17.45;100.00;97634.48;110604;1239;69236;-78
2023/06/22 00:08:04;;;;;;;20.60;16.70;;;;;;;17.40;100.00;97637.59;110664;1239;68797;-79
2023/06/22 00:10:35;;;;;;;17.80;15.10;;;;;;;17.36;100.00;97635.55;110701;1239;58879;-79
2023/06/22 00:13:07;;;;;;;19.40;15.80;;;;;;;17.30;100.00;97630.39;110690;1239;58853;-76
2023/06/22 00:15:40;;;;;;;20.30;16.60;;;;;;;17.28;100.00;97623.20;110601;1241;69850;-78
2023/06/22 00:18:13;;;;;;;20.70;17.10;;;;;;;17.26;100.00;97625.02;110707;1238;69266;-77
2023/06/22 00:20:43;;;;;;;20.20;17.00;;;;;;;17.22;100.00;97629.95;110787;1237;69865;-75
2023/06/22 00:23:17;;;;;;;17.90;15.60;;;;;;;17.17;100.00;97629.92;110699;1239;58944;-79
2023/06/22 00:25:48;;;;;;;16.20;13.70;;;;;;;17.14;100.00;97636.04;110789;1239;58872;-78
2023/06/22 00:28:19;;;;;;;17.30;15.00;;;;;;;17.09;100.00;97646.35;110770;1239;70418;-77
2023/06/22 00:30:49;;;;;;;;;;;;;;;17.07;100.00;97648.04;110497;1242;69195;-77
2023/06/22 00:33:20;;;;;;;22.60;16.90;;;;;;;17.04;100.00;97648.29;110394;1242;68489;-78
2023/06/22 00:35:52;;;;;;;;;;;;;;;17.04;100.00;97656.05;110526;1238;58957;-78
2023/06/22 00:38:23;;;;;;;18.60;15.40;;;;;;;17.02;100.00;97655.51;110674;1239;58879;-77
2023/06/22 00:40:53;;;;;;;18.20;14.60;;;;;;;17.02;100.00;97653.39;110672;1239;69852;-78
2023/06/22 00:43:23;;;;;;;15.30;13.60;;;;;;;17.00;100.00;97647.42;110436;1238;68933;-75
2023/06/22 00:45:52;;;;;;;16.10;14.10;;;;;;;16.98;100.00;97646.58;110633;1242;69706;-78
2023/06/22 00:48:22;;;;;;;18.80;15.70;;;;;;;16.96;100.00;97645.90;110710;1239;58852;-78
2023/06/22 00:50:53;;;;;;;;;;;;;;;16.94;100.00;97641.67;110658;1238;58876;-77
2023/06/22 00:53:24;;;;;;;15.90;13.40;;;;;;;16.92;100.00;97637.31;110685;1239;71535;-77
2023/06/22 00:55:58;;;;;;;18.90;15.10;;;;;;;16.90;100.00;97634.95;110728;1239;69068;-78
2023/06/22 00:58:28;;;;;;;17.90;15.60;;;;;;;16.89;100.00;97637.52;110739;1239;69851;-78
2023/06/22 01:01:00;;;;;;;16.30;13.90;;;;;;;16.89;100.00;97636.19;110635;1236;58934;-78
2023/06/22 01:03:30;;;;;;;17.40;14.90;;;;;;;16.89;100.00;97642.02;110645;1238;58899;-78
2023/06/22 01:06:09;;;;;;;18.40;15.70;;;;;;;16.89;100.00;97645.27;110664;1239;70780;-79
2023/06/22 01:08:44;;;;;;;20.70;15.70;;;;;;;16.91;100.00;97635.84;110537;1242;69883;-77
2023/06/22 01:11:32;;;;;;;17.70;15.50;;;;;;;16.93;100.00;97638.11;110489;1242;68476;-77
2023/06/22 01:14:12;;;;;;;20.00;15.50;;;;;;;16.95;100.00;97633.95;110709;1237;59304;-78
2023/06/22 01:16:47;;;;;;;17.20;14.80;;;;;;;16.97;100.00;97630.66;110511;1241;58837;-79
2023/06/22 01:19:36;;;;;;;18.90;15.80;;;;;;;16.97;100.00;97627.33;110633;1238;70393;-78
2023/06/22 01:22:15;;;;;;;18.60;16.10;;;;;;;16.97;100.00;97627.65;110625;1239;69211;-79
2023/06/22 01:25:06;;;;;;;;;;;;;;;16.95;100.00;97629.62;110442;1241;69272;-76
2023/06/22 01:27:41;;;;;;;18.00;15.20;;;;;;;16.90;100.00;97627.95;110656;1239;58935;-78
2023/06/22 01:30:16;;;;;;;18.10;15.30;;;;;;;16.87;100.00;97627.02;110629;1237;58944;-78
2023/06/22 01:32:47;;;;;;;17.10;14.90;;;;;;;16.84;100.00;97625.05;110518;1238;68800;-78
2023/06/22 01:35:20;;;;;;;18.10;15.60;;;;;;;16.81;100.00;97622.64;110596;1239;67570;-75
2023/06/22 01:37:51;;;;;;;16.00;12.40;;;;;;;16.79;100.00;97622.98;110389;1242;69793;-77
2023/06/22 01:40:21;;;;;;;15.80;13.40;;;;;;;16.76;100.00;97621.70;110640;1239;58884;-76
2023/06/22 01:42:55;;;;;;;17.90;14.20;;;;;;;16.74;100.00;97622.27;110639;1238;58843;-77
2023/06/22 01:45:29;;;;;;;17.80;15.90;;;;;;;16.71;100.00;97625.35;110524;1239;69595;-77
2023/06/22 01:48:00;;;;;;;18.50;15.00;;;;;;;16.68;100.00;97629.11;110691;1238;68271;-77
2023/06/22 01:50:33;;;;;;;18.00;15.10;;;;;;;16.63;100.00;97636.59;110700;1238;69057;-79
2023/06/22 01:53:06;;;;;;;19.90;17.00;;;;;;;16.59;100.00;97639.29;110554;1239;58852;-79
2023/06/22 01:55:36;;;;;;;19.10;16.80;;;;;;;16.56;100.00;97633.11;110875;1239;58863;-77
2023/06/22 01:58:08;;;;;;;19.80;15.60;;;;;;;16.52;100.00;97635.14;110652;1239;70544;-78
2023/06/22 02:00:41;;;;;;;18.20;15.30;;;;;;;16.51;100.00;97634.58;110832;1238;68569;-78
2023/06/22 02:03:19;;;;;;;18.20;15.00;;;;;;;16.52;100.00;97632.39;110790;1239;69087;-79
2023/06/22 02:06:24;;;;;;;19.30;15.20;;;;;;;16.53;100.00;97635.78;110724;1239;58868;-78
2023/06/22 02:09:01;;;;;;;16.60;14.50;;;;;;;16.56;100.00;97636.45;110648;1239;58868;-78
2023/06/22 02:11:33;;;;;;;20.00;16.10;;;;;;;16.60;100.00;97639.38;110615;1241;70618;-77
2023/06/22 02:14:06;;;;;;;19.90;16.90;;;;;;;16.64;100.00;97640.56;110534;1241;69280;-78
2023/06/22 02:16:37;;;;;;;19.10;16.20;;;;;;;16.66;100.00;97636.28;110751;1239;68501;-78
2023/06/22 02:19:08;;;;;;;16.50;14.60;;;;;;;16.67;100.00;97642.36;110746;1241;58851;-76
2023/06/22 02:21:38;;;;;;;18.30;15.30;;;;;;;16.71;100.00;97651.90;110705;1239;58937;-78
2023/06/22 02:24:09;;;;;;;18.60;15.50;;;;;;;16.74;100.00;97653.62;110482;1239;70881;-76
2023/06/22 02:26:42;;;;;;;19.70;16.10;;;;;;;16.74;100.00;97653.86;110648;1238;69017;-77
2023/06/22 02:29:13;;;;;;;18.10;15.40;;;;;;;16.77;100.00;97656.96;110699;1239;68507;-77
2023/06/22 02:31:45;;;;;;;16.30;14.30;;;;;;;16.78;100.00;97656.48;110597;1238;59331;-77
2023/06/22 02:34:18;;;;;;;16.80;14.70;;;;;;;16.81;100.00;97653.64;110598;1238;58869;-79
2023/06/22 02:36:53;;;;;;;17.30;13.90;;;;;;;16.79;100.00;97648.29;110678;1238;69494;-78
2023/06/22 02:39:24;;;;;;;19.80;17.00;;;;;;;16.77;100.00;97652.59;110559;1241;69240;-78
2023/06/22 02:41:57;;;;;;;16.60;14.50;;;;;;;16.73;100.00;97650.30;110615;1242;69894;-77
2023/06/22 02:44:28;;;;;;;16.50;14.00;;;;;;;16.67;100.00;97639.95;110540;1239;58851;-78
2023/06/22 02:46:58;;;;;;;17.40;14.60;;;;;;;16.63;100.00;97640.66;110655;1239;58903;-77
2023/06/22 02:49:30;;;;;;;18.20;16.00;;;;;;;16.61;100.00;97636.82;110626;1239;69971;-78
2023/06/22 02:52:01;;;;;;;15.20;13.30;;;;;;;16.61;100.00;97640.85;110663;1239;69179;-77
2023/06/22 02:54:33;;;;;;;15.00;12.50;;;;;;;16.62;100.00;97638.48;110654;1241;69067;-76
2023/06/22 02:57:04;;;;;;;15.10;12.90;;;;;;;16.63;100.00;97644.16;110439;1242;58854;-76
2023/06/22 02:59:34;;;;;;;15.70;14.00;;;;;;;16.65;100.00;97641.34;110431;1241;58915;-78
2023/06/22 03:02:09;;;;;;;22.10;17.40;;;;;;;16.67;100.00;97641.73;110390;1241;71011;-79
2023/06/22 03:04:39;;;;;;;18.00;16.00;;;;;;;16.69;100.00;97635.51;110446;1248;68397;-75
2023/06/22 03:07:09;;;;;;;17.40;15.50;;;;;;;16.73;100.00;97629.36;110418;1242;69312;-78
2023/06/22 03:09:39;;;;;;;18.40;14.60;;;;;;;16.76;100.00;97628.92;110373;1244;58927;-75
2023/06/22 03:12:09;;;;;;;19.90;15.20;;;;;;;16.80;100.00;97624.49;110425;1242;58939;-79
2023/06/22 03:14:52;;;;;;;16.70;15.00;;;;;;;16.83;100.00;97627.95;110766;1241;71208;-78
2023/06/22 03:17:22;;;;;;;22.40;16.30;;;;;;;16.86;100.00;97633.14;110482;1242;69099;-79
2023/06/22 03:19:53;;;;;;;17.30;14.40;;;;;;;16.89;100.00;97629.52;110395;1242;69116;-77
2023/06/22 03:22:23;;;;;;;18.20;15.40;;;;;;;16.95;100.00;97625.23;110604;1239;58872;-77
2023/06/22 03:24:53;;;;;;;18.40;16.00;;;;;;;17.02;100.00;97626.78;110627;1239;58814;-77
2023/06/22 03:27:23;;;;;;;18.00;15.50;;;;;;;17.10;100.00;97626.77;110548;1241;70977;-78
2023/06/22 03:29:54;;;;;;;;;;;;;;;17.19;100.00;97629.04;110703;1239;69233;-78
2023/06/22 03:32:27;;;;;;;18.00;15.00;;;;;;;17.28;100.00;97627.23;110504;1237;68407;-78
2023/06/22 03:34:58;;;;;;;18.50;15.20;;;;;;;17.39;100.00;97625.91;110574;1241;58934;-80
2023/06/22 03:37:29;;;;;;;16.50;14.00;;;;;;;17.48;100.00;97630.08;110494;1237;58956;-79
2023/06/22 03:40:00;;;;;;;16.40;13.60;;;;;;;17.59;100.00;97627.84;110587;1237;70614;-79
2023/06/22 03:42:31;;;;;;;15.60;13.90;;;;;;;17.70;100.00;97624.58;110480;1237;69085;-78
2023/06/22 03:45:03;;;;;;;15.50;13.90;;;;;;;17.82;100.00;97622.61;110737;1246;69664;-79
2023/06/22 03:47:33;;;;;;;15.10;13.20;;;;;;;17.93;100.00;97619.76;110470;1242;58886;-79
2023/06/22 03:50:05;;;;;;;15.00;13.10;;;;;;;18.05;100.00;97619.02;110553;1241;58931;-79
2023/06/22 03:52:35;;;;;;;14.10;12.40;;;;;;;18.17;100.00;97618.19;110789;1238;70627;-79
2023/06/22 03:55:07;;;;;;;13.80;12.30;;;;;;;18.30;100.00;97612.96;110678;1240;69636;-79
2023/06/22 03:57:37;;;;;;;15.10;12.30;;;;;;;18.42;100.00;97616.94;110691;1238;69133;-80
2023/06/22 04:00:09;;;;;;;14.60;12.70;;;;;;;18.51;100.00;97619.52;110923;1246;58905;-79
2023/06/22 04:02:43;;;;;;;13.50;12.10;;;;;;;18.63;100.00;97624.67;110823;1239;58877;-79
2023/06/22 04:05:13;;;;;;;;;;;;;;;18.72;100.00;97628.73;110828;1238;70899;-78
2023/06/22 04:07:43;;;;;;;12.80;10.30;;;;;;;18.82;100.00;97632.76;110922;1238;69159;-81
2023/06/22 04:10:13;;;;;;;13.30;11.50;;;;;;;18.93;100.00;97634.27;110835;1239;68347;-67
2023/06/22 04:12:47;;;;;;;12.60;10.80;;;;;;;19.04;100.00;97644.26;110720;1245;58927;-68
2023/06/22 04:15:16;;;;;;;;;;;;;;;19.07;100.00;97647.64;110678;1238;58865;-69
2023/06/22 04:17:45;;;;;;;11.70;10.40;;;;;;;19.24;100.00;97647.64;110675;1239;71165;-68
2023/06/22 04:20:15;;;;;;;13.60;11.70;;;;;;;19.31;100.00;97657.35;110663;1241;69245;-67
2023/06/22 04:22:45;;;;;;;12.40;11.10;;;;;;;19.34;100.00;97665.14;110699;1238;69877;-69
2023/06/22 04:25:15;;;;;;;13.40;11.10;;;;;;;19.53;100.00;97666.96;110736;1239;58938;-70
2023/06/22 04:27:45;;;;;;;12.50;11.20;;;;;;;19.76;100.00;97664.48;110747;1239;59306;-67
2023/06/22 04:30:16;;;;;;;12.80;11.50;;;;;;;19.88;100.00;97666.95;110687;1239;71542;-68
2023/06/22 04:32:55;;;;;;;14.90;13.40;;;;;;;19.88;100.00;97665.56;110735;1239;69226;-69
2023/06/22 04:35:28;;;;;;;15.30;13.70;;;;;;;19.82;100.00;97669.86;110688;1239;69298;-72
2023/06/22 04:37:58;;;;;;;14.90;12.40;;;;;;;19.81;100.00;97671.82;110677;1239;58968;-67
2023/06/22 04:40:28;;;;;;;14.60;12.50;;;;;;;19.88;100.00;97676.30;110751;1239;58931;-67
2023/06/22 04:43:02;;;;;;;14.90;13.30;;;;;;;19.89;100.00;97676.61;110702;1238;70513;-67
2023/06/22 04:45:31;;;;;;;16.10;13.60;;;;;;;19.90;100.00;97678.70;110788;1239;69252;-70
2023/06/22 04:48:00;;;;;;;14.30;12.70;;;;;;;19.93;100.00;97681.65;110606;1243;69304;-66
2023/06/22 04:50:30;;;;;;;15.60;12.50;;;;;;;20.03;100.00;97681.92;110660;1239;58972;-68
2023/06/22 04:53:05;;;;;;;12.80;11.00;;;;;;;20.17;100.00;97683.02;110432;1242;58879;-67
2023/06/22 04:55:37;;;;;;;12.40;11.20;;;;;;;20.34;100.00;97684.45;110658;1237;70499;-67
2023/06/22 04:58:08;;;;;;;12.60;11.30;;;;;;;20.48;100.00;97685.25;110714;1239;69246;-69
2023/06/22 05:00:37;;;;;;;11.70;10.50;;;;;;;20.60;100.00;97686.53;110472;1239;69253;-67
2023/06/22 05:03:10;;;;;;;12.70;11.00;;;;;;;20.69;100.00;97685.55;110615;1239;58883;-68
2023/06/22 05:05:48;;;;;;;12.50;10.70;;;;;;;20.74;100.00;97681.62;110733;1239;58884;-68
2023/06/22 05:08:18;;;;;;;13.30;11.40;;;;;;;20.75;100.00;97680.53;110124;1238;700433;-68
2023/06/22 05:10:48;;;;;;;13.20;11.30;;;;;;;20.78;100.00;97680.33;110656;1237;69190;-65
2023/06/22 05:13:33;;;;;;;12.20;10.90;;;;;;;20.84;100.00;97678.72;110729;1239;69662;-72
2023/06/22 05:16:05;;;;;;;14.20;11.80;;;;;;;20.88;99.34;97681.90;110799;1238;58902;-71
2023/06/22 05:18:34;;;;;;;12.40;10.60;;;;;;;21.01;99.04;97686.25;110920;1237;58932;-71
2023/06/22 05:21:04;;;;;;;11.50;10.30;;;;;;;21.11;98.29;97684.66;110671;1241;69555;-71
2023/06/22 05:23:33;;;;;;;11.70;10.60;;;;;;;21.26;96.33;97688.47;110875;1239;69253;-75
2023/06/22 05:26:03;;;;;;;10.80;9.00;;;;;;;21.41;95.37;97684.45;110835;1246;67381;-66
2023/06/22 05:28:33;;;;;;;10.90;9.60;;;;;;;21.56;94.46;97680.15;110612;1239;58868;-72
2023/06/22 05:31:02;;;;;;;11.20;10.10;;;;;;;21.70;94.81;97683.26;110781;1239;58947;-74
2023/06/22 05:33:30;;;;;;;11.30;10.10;;;;;;;21.82;92.14;97684.90;110656;1238;70015;-71
2023/06/22 05:36:00;;;;;;;10.50;9.50;;;;;;;21.98;90.04;97683.31;110779;1239;69607;-73
2023/06/22 05:38:29;;;;;;;10.60;9.60;;;;;;;22.16;91.43;97678.55;110696;1239;69121;-65
2023/06/22 05:40:58;;;;;;;10.30;9.30;;;;;;;22.30;91.78;97674.91;110472;1242;58933;-66
2023/06/22 05:43:29;;;;;;;10.00;8.80;;;;;;;22.39;91.08;97673.91;110249;1242;58950;-67
2023/06/22 05:45:58;;;;;;;9.00;8.20;;;;;;;22.43;89.26;97672.08;110620;1246;69568;-70
2023/06/22 05:48:28;;;;;;;10.10;8.80;;;;;;;22.48;89.04;97666.02;110623;1239;68457;-66
2023/06/22 05:50:57;;;;;;;;;;;;;;;22.52;87.20;97672.27;110673;1237;69118;-69
2023/06/22 05:53:27;;;;;;;9.50;8.50;;;;;;;22.59;87.51;97672.64;110640;1238;58908;-69
2023/06/22 05:55:56;;;;;;;10.40;8.70;;;;;;;22.69;86.12;97670.70;110697;1238;58871;-66
2023/06/22 05:58:25;;;;;;;11.80;9.90;;;;;;;22.85;85.28;97668.66;110684;1237;70583;-67
2023/06/22 06:00:55;;;;;;;;;;;;;;;23.07;83.36;97669.76;110700;1237;69253;-66
2023/06/22 06:03:24;;;;;;;11.40;8.80;;;;;;;23.21;82.24;97674.66;110744;1245;69383;-67
2023/06/22 06:05:53;;;;;;;;;;;;;;;23.33;82.26;97672.70;110792;1240;58880;-68
2023/06/22 06:08:23;;;;;;;11.50;9.50;;;;;;;23.35;80.36;97673.99;110685;1239;58809;-66
2023/06/22 06:10:54;;;;;;;10.20;9.20;;;;;;;23.45;79.75;97671.31;110707;1239;69984;-68
2023/06/22 06:13:24;;;;;;;10.30;8.40;;;;;;;23.54;79.75;97669.41;110712;1238;68282;-67
2023/06/22 06:15:54;;;;;;;9.70;8.50;;;;;;;23.70;79.16;97674.84;110694;1240;69868;-66
2023/06/22 06:18:25;;;;;;;12.00;10.00;;;;;;;23.71;78.07;97673.02;110686;1244;58876;-67
2023/06/22 06:20:54;;;;;;;10.90;9.80;;;;;;;23.76;78.32;97675.61;110716;1238;58818;-66
2023/06/22 06:23:23;;;;;;;10.60;9.50;;;;;;;23.73;77.91;97676.44;110727;1238;70994;-67
2023/06/22 06:25:53;;;;;;;10.20;9.10;;;;;;;23.76;78.00;97675.49;110761;1237;70195;-69
2023/06/22 06:28:24;;;;;;;;;;;;;;;23.86;77.15;97676.58;110705;1238;69866;-69
2023/06/22 06:30:54;;;;;;;10.50;9.50;;;;;;;24.01;77.13;97674.10;110799;1238;58886;-68
2023/06/22 06:33:24;;;;;;;;;;;;;;;24.14;77.07;97678.99;110790;1239;59210;-68
2023/06/22 06:35:55;;;;;;;10.60;9.50;;;;;;;24.17;76.59;97676.27;110659;1239;71148;-67
2023/06/22 06:38:24;;;;;;;10.40;9.40;;;;;;;24.20;76.49;97675.48;110668;1239;69211;-67
2023/06/22 06:40:53;;;;;;;10.90;9.60;;;;;;;24.24;74.23;97676.25;110660;1239;69967;-67
2023/06/22 06:43:24;;;;;;;10.30;9.20;;;;;;;24.39;73.12;97670.61;110769;1245;59002;-65
2023/06/22 06:45:53;;;;;;;11.90;10.20;;;;;;;24.78;73.81;97662.70;110691;1240;58871;-65
2023/06/22 06:48:22;;;;;;;;;;;;;;;25.18;72.54;97661.11;110673;1239;71183;-64
2023/06/22 06:50:51;;;;;;;11.70;9.10;;;;;;;25.68;72.32;97658.33;110673;1237;69290;-66
2023/06/22 06:53:20;;;;;;;11.00;9.90;;;;;;;26.10;69.80;97660.70;110621;1237;69261;-65
2023/06/22 06:55:49;;;;;;;10.40;9.30;;;;;;;26.38;68.02;97663.08;110634;1240;58937;-64
2023/06/22 06:58:18;;;;;;;;;;;;;;;26.78;67.58;97662.42;110708;1239;59149;-65
2023/06/22 07:00:48;;;;;;;9.90;8.70;;;;;;;27.12;64.95;97661.84;110700;1239;70424;-66
2023/06/22 07:03:18;;;;;;;10.70;9.40;;;;;;;27.49;63.41;97662.09;110680;1239;68497;-64
2023/06/22 07:05:47;;;;;;;10.50;9.30;;;;;;;27.81;62.88;97659.39;110722;1239;68541;-66
2023/06/22 07:08:16;;;;;;;10.90;9.90;;;;;;;28.09;61.04;97659.23;110662;1238;58931;-65
2023/06/22 07:10:45;;;;;;;10.40;9.40;;;;;;;28.23;59.05;97657.88;110660;1238;58934;-65
2023/06/22 07:13:15;;;;;;;10.40;9.30;;;;;;;28.43;59.71;97660.25;110698;1239;69995;-68
2023/06/22 07:15:44;;;;;;;10.10;9.20;;;;;;;28.76;58.98;97655.41;110742;1239;69829;-67
2023/06/22 07:18:14;;;;;;;9.30;8.50;;;;;;;29.00;57.43;97657.95;110728;1239;69626;-65
2023/06/22 07:20:43;;;;;;;10.60;9.60;;;;;;;29.55;57.32;97661.20;110697;1239;58890;-66
2023/06/22 07:23:12;;;;;;;9.90;9.00;;;;;;;29.93;55.65;97664.07;110685;1239;58920;-66
2023/06/22 07:25:41;;;;;;;9.60;8.70;;;;;;;30.21;54.42;97662.51;110637;1237;71138;-66
2023/06/22 07:28:11;;;;;;;;;;;;;;;30.32;51.89;97667.42;110691;1239;69863;-66
2023/06/22 07:30:40;;;;;;;10.20;9.30;;;;;;;30.56;52.99;97665.45;110610;1239;69267;-66
2023/06/22 07:33:09;;;;;;;10.10;9.00;;;;;;;30.68;52.09;97663.56;110665;1237;58863;-68
2023/06/22 07:35:38;;;;;;;9.20;8.30;;;;;;;30.68;51.58;97664.23;110677;1239;59224;-66
2023/06/22 07:38:08;;;;;;;9.30;8.30;;;;;;;30.60;52.42;97664.71;110610;1238;69938;-66
2023/06/22 07:40:38;;;;;;;10.90;9.70;;;;;;;30.51;52.23;97667.85;110683;1239;69720;-66
2023/06/22 07:43:06;;;;;;;10.70;9.70;;;;;;;29.82;52.32;97670.35;110638;1238;69371;-67
2023/06/22 07:45:39;;;;;;;10.20;9.10;;;;;;;29.53;53.93;97672.23;110621;1242;58922;-68
2023/06/22 07:48:08;;;;;;;11.60;10.50;;;;;;;28.64;55.90;97671.24;110670;1239;58896;-68
2023/06/22 07:50:38;;;;;;;10.40;9.30;;;;;;;28.27;57.05;97675.06;110688;1239;71120;-66
2023/06/22 07:53:07;;;;;;;9.70;8.70;;;;;;;28.15;58.56;97673.16;110709;1242;69165;-66
2023/06/22 07:55:36;;;;;;;11.10;10.10;;;;;;;27.90;60.33;97678.39;110652;1245;70011;-66
2023/06/22 07:58:04;;;;;;;;;;;;;;;27.78;60.36;97676.85;110690;1239;58874;-66
2023/06/22 08:00:34;;;;;;;12.00;10.90;;;;;;;27.70;60.74;97677.91;110656;1239;58929;-65
2023/06/22 08:03:05;;;;;;;12.40;10.70;;;;;;;27.48;61.14;97679.20;110649;1239;70552;-66
2023/06/22 08:05:34;;;;;;;11.50;10.40;;;;;;;27.09;61.67;97670.84;110620;1239;68382;-66
2023/06/22 08:08:04;;;;;;;11.30;10.10;;;;;;;26.82;63.36;97671.08;110609;1239;69367;-67
2023/06/22 08:10:34;;;;;;;11.70;10.60;;;;;;;26.77;63.90;97671.21;110720;1239;58862;-66
2023/06/22 08:13:03;;;;;;;11.10;10.10;;;;;;;26.35;65.12;97673.26;110675;1238;58968;-68
2023/06/22 08:15:32;;;;;;;10.90;9.80;;;;;;;26.24;65.34;97673.33;110702;1239;71107;-66
2023/06/22 08:18:01;;;;;;;13.20;11.00;;;;;;;26.18;64.75;97673.53;110741;1242;69864;-68
2023/06/22 08:20:31;;;;;;;10.80;9.80;;;;;;;26.05;66.22;97670.09;110760;1237;69893;-67
2023/06/22 08:23:06;;;;;;;11.00;10.00;;;;;;;26.07;66.53;97672.48;110456;1238;58927;-67
2023/06/22 08:25:35;;;;;;;10.70;9.70;;;;;;;26.40;66.29;97669.08;110712;1239;58969;-67
2023/06/22 08:28:05;;;;;;;9.70;8.90;;;;;;;26.71;64.79;97665.42;110724;1238;69591;-66
2023/06/22 08:30:34;;;;;;;10.40;9.40;;;;;;;26.90;63.95;97667.11;110696;1239;68519;-65
2023/06/22 08:33:03;;;;;;;10.80;9.70;;;;;;;27.11;64.41;97663.86;110661;1239;69299;-66
2023/06/22 08:35:32;;;;;;;11.70;10.50;;;;;;;27.35;62.71;97669.13;110633;1238;58950;-65
2023/06/22 08:38:02;;;;;;;11.90;10.70;;;;;;;27.42;62.72;97670.02;110665;1239;58785;-65
2023/06/22 08:40:31;;;;;;;10.90;9.80;;;;;;;27.49;62.50;97671.02;110705;1239;71204;-65
2023/06/22 08:43:00;;;;;;;10.70;9.50;;;;;;;27.60;62.44;97668.77;110683;1239;68476;-65
2023/06/22 08:45:29;;;;;;;10.90;9.80;;;;;;;27.81;62.41;97667.98;110659;1239;69318;-66
2023/06/22 08:47:59;;;;;;;11.70;10.00;;;;;;;28.18;62.17;97663.31;110632;1244;58855;-65
2023/06/22 08:50:28;;;;;;;10.00;9.10;;;;;;;28.68;60.58;97661.52;110650;1239;58820;-66
2023/06/22 08:52:57;;;;;;;9.80;8.90;;;;;;;29.14;58.53;97660.47;110456;1238;69785;-66
2023/06/22 08:55:27;;;;;;;11.20;10.20;;;;;;;29.61;56.73;97659.70;110731;1239;67813;-68
2023/06/22 08:57:56;;;;;;;10.20;9.30;;;;;;;29.95;56.31;97662.52;110734;1239;68765;-67
2023/06/22 09:00:29;;;;;;;10.50;9.50;;;;;;;30.06;55.37;97662.33;110630;1242;58920;-68
2023/06/22 09:02:58;;;;;;;11.30;10.20;;;;;;;30.32;53.66;97659.32;110644;1239;58863;-67
2023/06/22 09:05:29;;;;;;;11.40;10.30;;;;;;;30.11;53.11;97657.77;110655;1238;70404;-66
2023/06/22 09:07:59;;;;;;;10.20;9.30;;;;;;;30.13;51.70;97658.85;110667;1241;68253;-66
2023/06/22 09:10:28;;;;;;;11.60;10.50;;;;;;;30.08;52.62;97654.61;110665;1239;69796;-67
2023/06/22 09:12:57;;;;;;;10.40;9.40;;;;;;;30.16;53.95;97655.05;110665;1239;58936;-67
2023/06/22 09:15:27;;;;;;;11.60;10.50;;;;;;;30.58;52.11;97654.58;110684;1241;58939;-68
2023/06/22 09:17:57;;;;;;;10.60;9.60;;;;;;;30.51;51.89;97651.34;110629;1239;70570;-67
2023/06/22 09:20:26;;;;;;;10.20;9.20;;;;;;;31.04;52.18;97649.02;110662;1237;69807;-67
2023/06/22 09:22:55;;;;;;;10.50;9.50;;;;;;;31.13;47.21;97650.88;110642;1239;70342;-67
2023/06/22 09:25:25;;;;;;;11.50;10.40;;;;;;;30.90;47.46;97647.09;110674;1238;58872;-66
2023/06/22 09:27:54;;;;;;;11.20;10.10;;;;;;;30.66;48.37;97646.29;110649;1240;58886;-66
2023/06/22 09:30:23;;;;;;;11.80;10.80;;;;;;;31.10;48.28;97646.40;110690;1239;70531;-67
2023/06/22 09:32:52;;;;;;;9.10;8.30;;;;;;;31.20;46.38;97645.14;110744;1239;69641;-66
2023/06/22 09:35:21;;;;;;;9.40;8.60;;;;;;;31.31;47.43;97641.05;110611;1239;69880;-69
2023/06/22 09:37:50;;;;;;;9.70;8.90;;;;;;;31.31;45.61;97644.27;110726;1240;58862;-68
2023/06/22 09:40:22;;;;;;;9.20;8.40;;;;;;;31.15;46.29;97641.25;110726;1238;58929;-68
2023/06/22 09:42:51;;;;;;;10.00;9.10;;;;;;;31.25;46.15;97646.19;110519;1242;71019;-68
2023/06/22 09:45:20;;;;;;;10.80;9.80;;;;;;;30.97;45.66;97642.21;110683;1239;69701;-67
2023/06/22 09:47:49;;;;;;;10.60;9.70;;;;;;;31.36;45.27;97644.58;110721;1240;69297;-68
2023/06/22 09:50:19;;;;;;;12.40;11.20;;;;;;;31.74;45.24;97639.69;110454;1237;58923;-67
2023/06/22 09:52:50;;;;;;;11.10;10.10;;;;;;;31.88;44.46;97637.70;110638;1239;58837;-67
2023/06/22 09:55:19;;;;;;;11.00;10.00;;;;;;;31.24;45.15;97630.41;110338;1240;71560;-66
2023/06/22 09:57:49;;;;;;;11.30;10.20;;;;;;;31.41;45.68;97628.61;110467;1238;69883;-68
2023/06/22 10:00:19;;;;;;;10.90;10.00;;;;;;;31.53;46.87;97622.79;110363;1248;68594;-67
2023/06/22 10:02:50;;;;;;;9.60;8.80;;;;;;;31.79;48.94;97621.17;110487;1241;58940;-67
2023/06/22 10:05:20;;;;;;;11.80;10.70;;;;;;;31.99;45.73;97616.73;110399;1241;58897;-68
2023/06/22 10:07:49;;;;;;;10.20;9.20;;;;;;;32.09;45.59;97613.92;110492;1241;71092;-67
2023/06/22 10:10:18;;;;;;;10.00;9.10;;;;;;;32.38;45.36;97609.77;110524;1241;69374;-67
2023/06/22 10:12:56;;;;;;;9.50;8.70;;;;;;;32.59;45.08;97611.04;110433;1241;69269;-66
2023/06/22 10:15:26;;;;;;;10.70;9.80;;;;;;;32.86;44.11;97614.25;110529;1243;58922;-67
2023/06/22 10:17:56;;;;;;;12.20;11.10;;;;;;;33.08;43.89;97611.54;110533;1242;58818;-68
2023/06/22 10:20:26;;;;;;;12.60;11.40;;;;;;;33.01;43.38;97606.99;110385;1238;71172;-67
2023/06/22 10:22:55;;;;;;;9.90;8.90;;;;;;;33.07;44.30;97601.66;110393;1241;69784;-67
2023/06/22 10:25:27;;;;;;;11.40;10.40;;;;;;;33.10;43.34;97598.12;110383;1242;69677;-67
2023/06/22 10:27:57;;;;;;;10.60;9.60;;;;;;;32.99;42.83;97592.62;110436;1242;58893;-68
2023/06/22 10:30:26;;;;;;;10.50;9.60;;;;;;;32.37;45.01;97596.73;110411;1242;58895;-68
2023/06/22 10:32:55;;;;;;;11.00;10.00;;;;;;;31.47;46.08;97597.74;110514;1242;71132;-67
2023/06/22 10:35:25;;;;;;;10.10;9.10;;;;;;;31.89;46.29;97592.55;110424;1242;69225;-68
2023/06/22 10:37:56;;;;;;;11.40;10.40;;;;;;;32.13;44.75;97587.58;110531;1243;69861;-67
2023/06/22 10:40:25;;;;;;;11.90;10.90;;;;;;;31.75;43.50;97587.82;110536;1241;58907;-68
2023/06/22 10:42:54;;;;;;;13.10;11.80;;;;;;;31.75;43.46;97586.41;110506;1241;58861;-68
2023/06/22 10:45:23;;;;;;;12.00;10.80;;;;;;;31.63;43.97;97585.97;110391;1242;71197;-68
2023/06/22 10:47:53;;;;;;;10.90;9.80;;;;;;;31.59;45.42;97580.96;110436;1239;69311;-65
2023/06/22 10:50:26;;;;;;;9.50;8.40;;;;;;;31.39;45.89;97583.98;110375;1248;69232;-66
2023/06/22 10:52:55;;;;;;;10.40;9.50;;;;;;;31.80;44.61;97582.95;110391;1242;58869;-66
2023/06/22 10:55:27;;;;;;;9.70;8.80;;;;;;;32.16;43.85;97583.52;110639;1237;58896;-69
2023/06/22 10:58:15;;;;;;;8.50;7.70;;;;;;;31.70;41.75;97581.79;110325;1238;71276;-66
2023/06/22 11:00:44;;;;;;;8.80;8.00;;;;;;;32.10;41.63;97579.02;110666;1239;69784;-66
2023/06/22 11:03:14;;;;;;;11.20;10.10;;;;;;;32.28;41.08;97581.76;110639;1239;70478;-67
2023/06/22 11:05:43;;;;;;;9.50;8.60;;;;;;;32.26;41.89;97582.31;110708;1239;58979;-67
2023/06/22 11:08:12;;;;;;;8.10;7.40;;;;;;;32.32;43.02;97578.52;110680;1239;58868;-68
2023/06/22 11:10:41;;;;;;;10.80;9.80;;;;;;;32.66;43.97;97574.55;110759;1239;69625;-68
2023/06/22 11:13:10;;;;;;;9.30;8.40;;;;;;;32.54;42.03;97577.25;110687;1240;69020;-67
2023/06/22 11:15:40;;;;;;;8.40;7.60;;;;;;;32.87;40.85;97578.20;110685;1239;68329;-65
2023/06/22 11:18:09;;;;;;;;;;;;;;;32.82;40.12;97574.77;110615;1239;58856;-67
2023/06/22 11:20:40;;;;;;;7.80;7.00;;;;;;;32.74;41.50;97586.09;110677;1239;58875;-67
2023/06/22 11:23:12;;;;;;;8.60;7.80;;;;;;;33.05;41.10;97584.31;110661;1239;69593;-67
2023/06/22 11:25:42;;;;;;;9.10;7.60;;;;;;;33.03;40.25;97583.73;110772;1239;69190;-68
2023/06/22 11:28:11;;;;;;;8.80;8.00;;;;;;;33.28;38.88;97578.57;110679;1239;69883;-67
2023/06/22 11:41:51;;;;;;;8.90;8.00;;;;;;;33.72;40.39;97562.09;107194;1273;609669;-68